Terminal Aerodrome Forecast
Issued by NWS

Home | Current Version | Previous Version | Text Only | Print | Product List | Glossary On
Versions: 1 2 3 4 5 6 7 8 9 10 11 12 13 14 15
000
FTUS43 KGRR 252300
TAFLAN
TAF
KLAN 252340Z 2600/2624 21009KT P6SM VCSH BKN070
     FM261000 20009KT P6SM BKN035
     FM261400 22011KT P6SM BKN025=

USA.gov is the U.S. government's official web portal to all federal, state and local government web resources and services.